sensor_id;sensor_type;location;lat;lon;timestamp;temperature;humidity
54178;DHT22;40085;53.004;6.770;2022-11-20T00:05:43;-0.20;99.90
54178;DHT22;40085;53.004;6.770;2022-11-20T00:13:04;-0.20;99.90
54178;DHT22;40085;53.004;6.770;2022-11-20T00:17:57;-0.30;99.90
54178;DHT22;40085;53.004;6.770;2022-11-20T00:32:39;0.10;99.90
54178;DHT22;40085;53.004;6.770;2022-11-20T03:32:13;0.70;99.90
54178;DHT22;40085;53.004;6.770;2022-11-20T03:34:38;0.90;99.90
54178;DHT22;40085;53.004;6.770;2022-11-20T03:37:04;0.40;99.90
54178;DHT22;40085;53.004;6.770;2022-11-20T03:39:30;0.40;99.90
54178;DHT22;40085;53.004;6.770;2022-11-20T03:41:56;0.60;99.90
54178;DHT22;40085;53.004;6.770;2022-11-20T03:44:21;0.60;99.90
54178;DHT22;40085;53.004;6.770;2022-11-20T03:46:47;-0.10;99.90
54178;DHT22;40085;53.004;6.770;2022-11-20T03:49:13;0.20;99.90
54178;DHT22;40085;53.004;6.770;2022-11-20T03:51:39;-0.60;99.90
54178;DHT22;40085;53.004;6.770;2022-11-20T03:54:06;0.50;99.90
54178;DHT22;40085;53.004;6.770;2022-11-20T03:56:35;0.50;99.90
54178;DHT22;40085;53.004;6.770;2022-11-20T03:59:05;0.60;99.90
54178;DHT22;40085;53.004;6.770;2022-11-20T04:01:34;0.50;99.90
54178;DHT22;40085;53.004;6.770;2022-11-20T04:04:03;0.20;99.90
54178;DHT22;40085;53.004;6.770;2022-11-20T04:06:33;0.30;99.90
54178;DHT22;40085;53.004;6.770;2022-11-20T04:09:00;0.40;99.90
54178;DHT22;40085;53.004;6.770;2022-11-20T04:11:31;0.70;99.90
54178;DHT22;40085;53.004;6.770;2022-11-20T04:13:59;0.20;99.90
54178;DHT22;40085;53.004;6.770;2022-11-20T04:16:26;0.70;99.90
54178;DHT22;40085;53.004;6.770;2022-11-20T04:18:56;0.20;99.90
54178;DHT22;40085;53.004;6.770;2022-11-20T04:21:23;0.20;99.90
54178;DHT22;40085;53.004;6.770;2022-11-20T04:23:50;0.20;99.90
54178;DHT22;40085;53.004;6.770;2022-11-20T04:26:19;0.20;99.90
54178;DHT22;40085;53.004;6.770;2022-11-20T04:28:45;0.20;99.90
54178;DHT22;40085;53.004;6.770;2022-11-20T04:31:20;0.90;99.90
54178;DHT22;40085;53.004;6.770;2022-11-20T04:33:46;1.00;99.90
54178;DHT22;40085;53.004;6.770;2022-11-20T04:36:16;1.20;99.90
54178;DHT22;40085;53.004;6.770;2022-11-20T04:38:42;0.20;99.90
54178;DHT22;40085;53.004;6.770;2022-11-20T04:41:16;0.40;99.90
54178;DHT22;40085;53.004;6.770;2022-11-20T04:43:46;0.90;99.90
54178;DHT22;40085;53.004;6.770;2022-11-20T04:46:14;0.70;99.90
54178;DHT22;40085;53.004;6.770;2022-11-20T04:48:40;0.70;99.90
54178;DHT22;40085;53.004;6.770;2022-11-20T04:53:32;0.50;99.90
54178;DHT22;40085;53.004;6.770;2022-11-20T04:56:07;0.40;99.90
54178;DHT22;40085;53.004;6.770;2022-11-20T04:58:36;0.70;99.90
54178;DHT22;40085;53.004;6.770;2022-11-20T05:01:04;2.90;99.90
54178;DHT22;40085;53.004;6.770;2022-11-20T05:03:31;0.70;99.90
54178;DHT22;40085;53.004;6.770;2022-11-20T05:06:00;1.50;99.90
54178;DHT22;40085;53.004;6.770;2022-11-20T05:08:26;2.40;99.90
54178;DHT22;40085;53.004;6.770;2022-11-20T05:10:52;1.90;99.90
54178;DHT22;40085;53.004;6.770;2022-11-20T05:13:18;0.70;99.70
54178;DHT22;40085;53.004;6.770;2022-11-20T05:15:44;3.20;99.70
54178;DHT22;40085;53.004;6.770;2022-11-20T05:18:09;0.50;98.60
54178;DHT22;40085;53.004;6.770;2022-11-20T05:20:35;2.50;97.10
54178;DHT22;40085;53.004;6.770;2022-11-20T05:23:02;1.40;96.40
54178;DHT22;40085;53.004;6.770;2022-11-20T05:25:28;3.20;95.90
54178;DHT22;40085;53.004;6.770;2022-11-20T05:27:53;2.70;97.60
54178;DHT22;40085;53.004;6.770;2022-11-20T05:30:19;-0.40;97.10
54178;DHT22;40085;53.004;6.770;2022-11-20T05:32:45;3.70;97.40
54178;DHT22;40085;53.004;6.770;2022-11-20T05:35:13;3.00;97.90
54178;DHT22;40085;53.004;6.770;2022-11-20T05:37:39;0.70;95.20
54178;DHT22;40085;53.004;6.770;2022-11-20T05:40:05;1.80;97.20
54178;DHT22;40085;53.004;6.770;2022-11-20T05:42:31;0.30;96.60
54178;DHT22;40085;53.004;6.770;2022-11-20T05:45:02;0.50;97.30
54178;DHT22;40085;53.004;6.770;2022-11-20T05:47:32;2.10;96.50
54178;DHT22;40085;53.004;6.770;2022-11-20T05:49:58;2.40;96.60
54178;DHT22;40085;53.004;6.770;2022-11-20T05:52:23;2.30;97.70
54178;DHT22;40085;53.004;6.770;2022-11-20T05:54:49;3.00;99.10
54178;DHT22;40085;53.004;6.770;2022-11-20T05:57:15;0.40;99.20
54178;DHT22;40085;53.004;6.770;2022-11-20T05:59:41;0.50;98.10
54178;DHT22;40085;53.004;6.770;2022-11-20T06:02:07;2.40;99.30
54178;DHT22;40085;53.004;6.770;2022-11-20T06:04:36;0.20;99.60
54178;DHT22;40085;53.004;6.770;2022-11-20T06:07:02;0.70;97.70
54178;DHT22;40085;53.004;6.770;2022-11-20T06:09:28;0.50;96.90
54178;DHT22;40085;53.004;6.770;2022-11-20T06:11:54;2.90;93.50
54178;DHT22;40085;53.004;6.770;2022-11-20T06:14:20;3.30;93.10
54178;DHT22;40085;53.004;6.770;2022-11-20T06:16:45;-0.10;93.00
54178;DHT22;40085;53.004;6.770;2022-11-20T06:19:11;0.50;93.70
54178;DHT22;40085;53.004;6.770;2022-11-20T06:21:37;2.80;94.70
54178;DHT22;40085;53.004;6.770;2022-11-20T06:24:03;2.50;95.50
54178;DHT22;40085;53.004;6.770;2022-11-20T06:26:30;0.60;94.40
54178;DHT22;40085;53.004;6.770;2022-11-20T06:28:58;2.60;92.30
54178;DHT22;40085;53.004;6.770;2022-11-20T06:31:25;0.50;91.70
54178;DHT22;40085;53.004;6.770;2022-11-20T06:33:52;2.90;91.30
54178;DHT22;40085;53.004;6.770;2022-11-20T06:36:19;0.40;91.00
54178;DHT22;40085;53.004;6.770;2022-11-20T06:38:45;1.70;91.30
54178;DHT22;40085;53.004;6.770;2022-11-20T06:41:17;0.90;93.50
54178;DHT22;40085;53.004;6.770;2022-11-20T06:43:43;2.70;86.80
54178;DHT22;40085;53.004;6.770;2022-11-20T06:46:11;2.70;83.50
54178;DHT22;40085;53.004;6.770;2022-11-20T06:48:38;2.20;74.30
54178;DHT22;40085;53.004;6.770;2022-11-20T06:51:06;0.50;74.90
54178;DHT22;40085;53.004;6.770;2022-11-20T06:53:33;0.50;76.60
54178;DHT22;40085;53.004;6.770;2022-11-20T06:55:58;2.10;76.40
54178;DHT22;40085;53.004;6.770;2022-11-20T06:58:27;2.30;78.40
54178;DHT22;40085;53.004;6.770;2022-11-20T07:00:53;3.20;75.80
54178;DHT22;40085;53.004;6.770;2022-11-20T07:03:19;0.50;79.60
54178;DHT22;40085;53.004;6.770;2022-11-20T07:05:45;0.60;78.00
54178;DHT22;40085;53.004;6.770;2022-11-20T07:08:12;0.80;72.50
54178;DHT22;40085;53.004;6.770;2022-11-20T07:10:37;2.40;77.30
54178;DHT22;40085;53.004;6.770;2022-11-20T07:13:03;3.10;74.70
54178;DHT22;40085;53.004;6.770;2022-11-20T07:15:30;2.70;69.00
54178;DHT22;40085;53.004;6.770;2022-11-20T07:17:58;3.00;66.00
54178;DHT22;40085;53.004;6.770;2022-11-20T07:20:24;1.80;61.00
54178;DHT22;40085;53.004;6.770;2022-11-20T07:22:57;0.60;60.10
54178;DHT22;40085;53.004;6.770;2022-11-20T07:25:27;2.90;62.90
54178;DHT22;40085;53.004;6.770;2022-11-20T07:27:57;0.60;57.20
54178;DHT22;40085;53.004;6.770;2022-11-20T07:30:23;2.80;50.60
54178;DHT22;40085;53.004;6.770;2022-11-20T07:32:53;2.90;60.00
54178;DHT22;40085;53.004;6.770;2022-11-20T07:35:19;2.00;58.70
54178;DHT22;40085;53.004;6.770;2022-11-20T07:37:46;3.40;61.30
54178;DHT22;40085;53.004;6.770;2022-11-20T07:40:16;3.00;53.70
54178;DHT22;40085;53.004;6.770;2022-11-20T07:42:49;0.60;38.20
54178;DHT22;40085;53.004;6.770;2022-11-20T07:45:16;0.80;51.00
54178;DHT22;40085;53.004;6.770;2022-11-20T07:47:41;2.70;56.90
54178;DHT22;40085;53.004;6.770;2022-11-20T07:50:07;2.90;56.20
54178;DHT22;40085;53.004;6.770;2022-11-20T07:52:33;0.90;51.70
54178;DHT22;40085;53.004;6.770;2022-11-20T07:54:59;3.10;33.40
54178;DHT22;40085;53.004;6.770;2022-11-20T07:57:25;1.40;43.60
54178;DHT22;40085;53.004;6.770;2022-11-20T07:59:50;3.50;44.30
54178;DHT22;40085;53.004;6.770;2022-11-20T08:02:16;2.90;32.40
54178;DHT22;40085;53.004;6.770;2022-11-20T08:04:42;0.80;33.10
54178;DHT22;40085;53.004;6.770;2022-11-20T08:07:08;3.10;33.00
54178;DHT22;40085;53.004;6.770;2022-11-20T08:09:33;3.30;34.00
54178;DHT22;40085;53.004;6.770;2022-11-20T08:11:59;2.80;30.90
54178;DHT22;40085;53.004;6.770;2022-11-20T08:14:43;3.50;33.30
54178;DHT22;40085;53.004;6.770;2022-11-20T08:17:09;2.80;27.40
54178;DHT22;40085;53.004;6.770;2022-11-20T08:19:35;3.40;25.30
54178;DHT22;40085;53.004;6.770;2022-11-20T08:22:01;1.00;19.80
54178;DHT22;40085;53.004;6.770;2022-11-20T08:24:26;0.90;12.40
54178;DHT22;40085;53.004;6.770;2022-11-20T08:26:52;2.10;23.30
54178;DHT22;40085;53.004;6.770;2022-11-20T08:29:18;1.20;26.30
54178;DHT22;40085;53.004;6.770;2022-11-20T08:31:44;2.00;20.30
54178;DHT22;40085;53.004;6.770;2022-11-20T08:34:10;1.50;20.60
54178;DHT22;40085;53.004;6.770;2022-11-20T08:36:36;3.30;11.00
54178;DHT22;40085;53.004;6.770;2022-11-20T08:39:03;3.60;16.80
54178;DHT22;40085;53.004;6.770;2022-11-20T08:41:29;3.10;13.10
54178;DHT22;40085;53.004;6.770;2022-11-20T08:44:06;1.00;10.60
54178;DHT22;40085;53.004;6.770;2022-11-20T08:46:34;1.20;13.90
54178;DHT22;40085;53.004;6.770;2022-11-20T08:49:02;3.60;15.00
54178;DHT22;40085;53.004;6.770;2022-11-20T08:51:28;1.80;12.20
54178;DHT22;40085;53.004;6.770;2022-11-20T08:53:54;1.90;12.70
54178;DHT22;40085;53.004;6.770;2022-11-20T08:56:19;1.40;5.70
54178;DHT22;40085;53.004;6.770;2022-11-20T08:58:45;3.40;3.40
54178;DHT22;40085;53.004;6.770;2022-11-20T09:01:11;1.20;1.00
54178;DHT22;40085;53.004;6.770;2022-11-20T09:03:37;3.50;1.00
54178;DHT22;40085;53.004;6.770;2022-11-20T09:06:05;3.90;1.00
54178;DHT22;40085;53.004;6.770;2022-11-20T09:08:31;1.60;1.00
54178;DHT22;40085;53.004;6.770;2022-11-20T09:10:58;3.70;1.00
54178;DHT22;40085;53.004;6.770;2022-11-20T09:13:25;2.60;1.00
54178;DHT22;40085;53.004;6.770;2022-11-20T09:15:55;4.00;1.00
54178;DHT22;40085;53.004;6.770;2022-11-20T09:18:22;2.20;1.00
54178;DHT22;40085;53.004;6.770;2022-11-20T09:20:48;2.90;1.00
54178;DHT22;40085;53.004;6.770;2022-11-20T09:23:14;1.60;1.00
54178;DHT22;40085;53.004;6.770;2022-11-20T09:25:40;3.40;1.00
54178;DHT22;40085;53.004;6.770;2022-11-20T09:28:06;1.50;1.00
54178;DHT22;40085;53.004;6.770;2022-11-20T09:30:32;3.30;1.00
54178;DHT22;40085;53.004;6.770;2022-11-20T09:32:58;4.10;1.00
54178;DHT22;40085;53.004;6.770;2022-11-20T09:35:24;4.20;99.90
54178;DHT22;40085;53.004;6.770;2022-11-20T09:37:50;3.60;99.90
54178;DHT22;40085;53.004;6.770;2022-11-20T09:40:29;1.50;99.90
54178;DHT22;40085;53.004;6.770;2022-11-20T09:46:11;2.40;99.90
54178;DHT22;40085;53.004;6.770;2022-11-20T09:51:35;1.90;99.90
54178;DHT22;40085;53.004;6.770;2022-11-20T09:54:20;2.00;1.00
54178;DHT22;40085;53.004;6.770;2022-11-20T09:56:54;2.70;28.20
54178;DHT22;40085;53.004;6.770;2022-11-20T09:59:29;2.00;52.40
54178;DHT22;40085;53.004;6.770;2022-11-20T10:01:59;2.00;90.50
54178;DHT22;40085;53.004;6.770;2022-11-20T10:04:25;4.10;99.90
54178;DHT22;40085;53.004;6.770;2022-11-20T10:07:05;2.00;99.90
54178;DHT22;40085;53.004;6.770;2022-11-20T10:09:35;2.10;99.90
54178;DHT22;40085;53.004;6.770;2022-11-20T10:14:46;2.20;99.90
54178;DHT22;40085;53.004;6.770;2022-11-20T10:17:39;2.20;95.70
54178;DHT22;40085;53.004;6.770;2022-11-20T10:31:12;2.50;99.90
54178;DHT22;40085;53.004;6.770;2022-11-20T10:33:42;2.50;1.00
54178;DHT22;40085;53.004;6.770;2022-11-20T10:36:21;2.60;99.90
54178;DHT22;40085;53.004;6.770;2022-11-20T10:39:00;3.00;99.90
54178;DHT22;40085;53.004;6.770;2022-11-20T10:41:38;3.10;1.00
54178;DHT22;40085;53.004;6.770;2022-11-20T10:44:26;3.40;99.90
54178;DHT22;40085;53.004;6.770;2022-11-20T10:47:17;2.80;1.00
54178;DHT22;40085;53.004;6.770;2022-11-20T10:49:49;2.90;8.80
54178;DHT22;40085;53.004;6.770;2022-11-20T10:55:05;3.00;1.00
54178;DHT22;40085;53.004;6.770;2022-11-20T11:00:19;3.10;99.90
54178;DHT22;40085;53.004;6.770;2022-11-20T11:02:48;3.10;99.90
54178;DHT22;40085;53.004;6.770;2022-11-20T11:05:43;3.10;99.90
54178;DHT22;40085;53.004;6.770;2022-11-20T11:08:14;3.10;99.90
54178;DHT22;40085;53.004;6.770;2022-11-20T11:13:27;3.10;1.00
54178;DHT22;40085;53.004;6.770;2022-11-20T11:15:53;3.10;1.00
54178;DHT22;40085;53.004;6.770;2022-11-20T11:18:30;4.50;99.90
54178;DHT22;40085;53.004;6.770;2022-11-20T11:20:59;3.00;1.00
54178;DHT22;40085;53.004;6.770;2022-11-20T11:23:40;3.10;1.00
54178;DHT22;40085;53.004;6.770;2022-11-20T11:26:18;3.00;99.90
54178;DHT22;40085;53.004;6.770;2022-11-20T11:28:57;4.30;99.90
54178;DHT22;40085;53.004;6.770;2022-11-20T11:31:31;3.00;1.00
54178;DHT22;40085;53.004;6.770;2022-11-20T11:34:16;3.00;99.90
54178;DHT22;40085;53.004;6.770;2022-11-20T11:36:54;2.90;99.90
54178;DHT22;40085;53.004;6.770;2022-11-20T11:39:21;4.40;99.90
54178;DHT22;40085;53.004;6.770;2022-11-20T11:41:47;4.90;99.90
54178;DHT22;40085;53.004;6.770;2022-11-20T11:44:20;3.20;1.00
54178;DHT22;40085;53.004;6.770;2022-11-20T11:47:11;4.60;1.00
54178;DHT22;40085;53.004;6.770;2022-11-20T11:49:37;2.90;1.00
54178;DHT22;40085;53.004;6.770;2022-11-20T11:52:18;4.00;1.00
54178;DHT22;40085;53.004;6.770;2022-11-20T11:55:01;4.00;11.90
54178;DHT22;40085;53.004;6.770;2022-11-20T11:57:46;2.90;1.00
54178;DHT22;40085;53.004;6.770;2022-11-20T12:00:21;2.80;1.00
54178;DHT22;40085;53.004;6.770;2022-11-20T12:05:44;2.80;1.00
54178;DHT22;40085;53.004;6.770;2022-11-20T12:08:26;4.80;1.00
54178;DHT22;40085;53.004;6.770;2022-11-20T12:11:12;2.80;1.00
54178;DHT22;40085;53.004;6.770;2022-11-20T12:13:56;5.00;1.00
54178;DHT22;40085;53.004;6.770;2022-11-20T12:16:24;2.90;1.00
54178;DHT22;40085;53.004;6.770;2022-11-20T12:18:51;5.00;1.00
54178;DHT22;40085;53.004;6.770;2022-11-20T12:35:36;3.30;1.00
54178;DHT22;40085;53.004;6.770;2022-11-20T12:50:23;3.40;1.00
54178;DHT22;40085;53.004;6.770;2022-11-20T13:02:23;3.20;1.00
54178;DHT22;40085;53.004;6.770;2022-11-20T13:07:12;3.30;1.00
54178;DHT22;40085;53.004;6.770;2022-11-20T13:09:46;5.60;1.00
54178;DHT22;40085;53.004;6.770;2022-11-20T13:12:33;3.40;1.00
54178;DHT22;40085;53.004;6.770;2022-11-20T13:15:18;3.60;1.00
54178;DHT22;40085;53.004;6.770;2022-11-20T13:17:57;3.70;1.00
54178;DHT22;40085;53.004;6.770;2022-11-20T13:20:24;3.60;1.00
54178;DHT22;40085;53.004;6.770;2022-11-20T13:22:51;5.70;1.00
54178;DHT22;40085;53.004;6.770;2022-11-20T13:25:38;3.70;1.00
54178;DHT22;40085;53.004;6.770;2022-11-20T13:28:29;3.70;1.00
54178;DHT22;40085;53.004;6.770;2022-11-20T13:30:56;3.60;1.00
54178;DHT22;40085;53.004;6.770;2022-11-20T13:33:36;4.00;1.00
54178;DHT22;40085;53.004;6.770;2022-11-20T13:36:20;5.40;1.00
54178;DHT22;40085;53.004;6.770;2022-11-20T13:38:48;4.20;1.00
54178;DHT22;40085;53.004;6.770;2022-11-20T13:41:29;2.90;1.20
54178;DHT22;40085;53.004;6.770;2022-11-20T13:46:45;3.70;40.40
54178;DHT22;40085;53.004;6.770;2022-11-20T13:49:40;5.70;22.30
54178;DHT22;40085;53.004;6.770;2022-11-20T13:57:59;3.80;15.80
54178;DHT22;40085;53.004;6.770;2022-11-20T14:00:27;3.60;1.00
54178;DHT22;40085;53.004;6.770;2022-11-20T14:05:35;3.60;1.00
54178;DHT22;40085;53.004;6.770;2022-11-20T14:08:03;3.60;1.00
54178;DHT22;40085;53.004;6.770;2022-11-20T14:10:31;3.80;1.00
54178;DHT22;40085;53.004;6.770;2022-11-20T14:12:57;3.60;2.80
54178;DHT22;40085;53.004;6.770;2022-11-20T14:15:33;3.60;37.60
54178;DHT22;40085;53.004;6.770;2022-11-20T14:18:11;5.70;22.00
54178;DHT22;40085;53.004;6.770;2022-11-20T14:20:37;4.30;18.50
54178;DHT22;40085;53.004;6.770;2022-11-20T14:23:04;3.50;15.50
54178;DHT22;40085;53.004;6.770;2022-11-20T14:25:30;3.60;93.60
54178;DHT22;40085;53.004;6.770;2022-11-20T14:27:57;4.90;99.90
54178;DHT22;40085;53.004;6.770;2022-11-20T14:30:38;3.80;80.20
54178;DHT22;40085;53.004;6.770;2022-11-20T14:33:05;5.50;83.10
54178;DHT22;40085;53.004;6.770;2022-11-20T14:35:35;4.50;96.20
54178;DHT22;40085;53.004;6.770;2022-11-20T14:38:03;4.50;99.90
54178;DHT22;40085;53.004;6.770;2022-11-20T14:42:57;3.10;99.90
54178;DHT22;40085;53.004;6.770;2022-11-20T14:45:24;3.10;99.90
54178;DHT22;40085;53.004;6.770;2022-11-20T14:47:51;3.10;99.90
54178;DHT22;40085;53.004;6.770;2022-11-20T14:50:29;3.30;99.90
54178;DHT22;40085;53.004;6.770;2022-11-20T14:53:00;3.20;99.90
54178;DHT22;40085;53.004;6.770;2022-11-20T14:55:34;2.90;99.90
54178;DHT22;40085;53.004;6.770;2022-11-20T14:58:03;2.80;99.90
54178;DHT22;40085;53.004;6.770;2022-11-20T15:00:33;3.10;1.00
54178;DHT22;40085;53.004;6.770;2022-11-20T15:02:59;2.50;99.90
54178;DHT22;40085;53.004;6.770;2022-11-20T15:05:48;3.00;1.00
54178;DHT22;40085;53.004;6.770;2022-11-20T15:21:12;2.50;1.00
54178;DHT22;40085;53.004;6.770;2022-11-20T15:23:38;2.50;4.40
54178;DHT22;40085;53.004;6.770;2022-11-20T15:26:05;1.90;92.10
54178;DHT22;40085;53.004;6.770;2022-11-20T15:28:34;2.20;1.00
54178;DHT22;40085;53.004;6.770;2022-11-20T15:31:01;2.00;1.00
54178;DHT22;40085;53.004;6.770;2022-11-20T15:33:28;2.30;99.90
54178;DHT22;40085;53.004;6.770;2022-11-20T15:35:54;2.10;99.90
54178;DHT22;40085;53.004;6.770;2022-11-20T15:38:20;2.00;1.00
54178;DHT22;40085;53.004;6.770;2022-11-20T15:40:46;2.10;99.90
54178;DHT22;40085;53.004;6.770;2022-11-20T15:43:12;2.30;1.00
54178;DHT22;40085;53.004;6.770;2022-11-20T15:45:46;2.30;99.90
54178;DHT22;40085;53.004;6.770;2022-11-20T15:48:25;2.00;1.00
54178;DHT22;40085;53.004;6.770;2022-11-20T15:53:41;2.30;99.90
54178;DHT22;40085;53.004;6.770;2022-11-20T15:56:33;2.40;99.90
54178;DHT22;40085;53.004;6.770;2022-11-20T15:58:58;2.10;15.40
54178;DHT22;40085;53.004;6.770;2022-11-20T16:01:24;2.30;99.90
54178;DHT22;40085;53.004;6.770;2022-11-20T16:03:50;2.00;99.90
54178;DHT22;40085;53.004;6.770;2022-11-20T16:06:16;2.10;99.90
54178;DHT22;40085;53.004;6.770;2022-11-20T16:08:42;2.00;99.90
54178;DHT22;40085;53.004;6.770;2022-11-20T16:11:13;2.10;99.90
54178;DHT22;40085;53.004;6.770;2022-11-20T16:13:40;2.30;99.90
54178;DHT22;40085;53.004;6.770;2022-11-20T16:16:37;2.20;99.90
54178;DHT22;40085;53.004;6.770;2022-11-20T16:19:04;2.20;99.90
54178;DHT22;40085;53.004;6.770;2022-11-20T16:21:30;2.10;99.90
54178;DHT22;40085;53.004;6.770;2022-11-20T16:24:04;2.20;99.90
54178;DHT22;40085;53.004;6.770;2022-11-20T16:31:24;2.00;99.90
54178;DHT22;40085;53.004;6.770;2022-11-20T16:33:51;2.10;99.90
54178;DHT22;40085;53.004;6.770;2022-11-20T16:36:19;2.10;99.90
54178;DHT22;40085;53.004;6.770;2022-11-20T16:38:46;2.20;99.90
54178;DHT22;40085;53.004;6.770;2022-11-20T16:41:12;2.10;99.90
54178;DHT22;40085;53.004;6.770;2022-11-20T16:43:45;2.10;99.90
54178;DHT22;40085;53.004;6.770;2022-11-20T16:46:12;1.90;99.90
54178;DHT22;40085;53.004;6.770;2022-11-20T16:48:38;1.90;99.90
54178;DHT22;40085;53.004;6.770;2022-11-20T16:51:08;1.90;99.90
54178;DHT22;40085;53.004;6.770;2022-11-20T16:53:35;2.00;99.90
54178;DHT22;40085;53.004;6.770;2022-11-20T16:56:18;2.00;99.90
54178;DHT22;40085;53.004;6.770;2022-11-20T16:58:45;2.20;99.90
54178;DHT22;40085;53.004;6.770;2022-11-20T17:01:14;2.00;99.90
54178;DHT22;40085;53.004;6.770;2022-11-20T17:03:42;2.10;99.90
54178;DHT22;40085;53.004;6.770;2022-11-20T17:06:16;2.20;99.90
54178;DHT22;40085;53.004;6.770;2022-11-20T17:08:43;1.90;99.90
54178;DHT22;40085;53.004;6.770;2022-11-20T17:11:11;2.10;99.90
54178;DHT22;40085;53.004;6.770;2022-11-20T17:13:37;2.20;99.90
54178;DHT22;40085;53.004;6.770;2022-11-20T17:16:08;1.80;99.90
54178;DHT22;40085;53.004;6.770;2022-11-20T17:18:35;1.80;99.90
54178;DHT22;40085;53.004;6.770;2022-11-20T17:21:01;2.10;99.90
54178;DHT22;40085;53.004;6.770;2022-11-20T17:23:38;2.10;99.90
54178;DHT22;40085;53.004;6.770;2022-11-20T17:26:23;2.10;99.90
54178;DHT22;40085;53.004;6.770;2022-11-20T17:28:57;1.70;1.00
54178;DHT22;40085;53.004;6.770;2022-11-20T17:31:25;1.70;99.90
54178;DHT22;40085;53.004;6.770;2022-11-20T17:33:51;2.00;99.90
54178;DHT22;40085;53.004;6.770;2022-11-20T17:36:17;0.50;99.90
54178;DHT22;40085;53.004;6.770;2022-11-20T17:38:44;2.70;1.00
54178;DHT22;40085;53.004;6.770;2022-11-20T17:41:15;5.00;1.00
54178;DHT22;40085;53.004;6.770;2022-11-20T17:43:42;5.20;1.00
54178;DHT22;40085;53.004;6.770;2022-11-20T17:46:11;4.50;1.00
54178;DHT22;40085;53.004;6.770;2022-11-20T17:48:37;4.80;1.00
54178;DHT22;40085;53.004;6.770;2022-11-20T17:51:07;2.80;1.00
54178;DHT22;40085;53.004;6.770;2022-11-20T17:53:36;1.90;1.00
54178;DHT22;40085;53.004;6.770;2022-11-20T17:56:04;2.10;1.00
54178;DHT22;40085;53.004;6.770;2022-11-20T17:58:49;1.60;1.00
54178;DHT22;40085;53.004;6.770;2022-11-20T18:01:15;1.60;1.00
54178;DHT22;40085;53.004;6.770;2022-11-20T18:03:41;1.80;1.00
54178;DHT22;40085;53.004;6.770;2022-11-20T18:06:19;4.00;1.00
54178;DHT22;40085;53.004;6.770;2022-11-20T18:08:49;1.70;1.00
54178;DHT22;40085;53.004;6.770;2022-11-20T18:11:23;4.40;1.00
54178;DHT22;40085;53.004;6.770;2022-11-20T18:13:54;1.80;1.00
54178;DHT22;40085;53.004;6.770;2022-11-20T18:16:51;2.20;1.00
54178;DHT22;40085;53.004;6.770;2022-11-20T18:19:24;1.80;1.00
54178;DHT22;40085;53.004;6.770;2022-11-20T18:21:50;1.70;1.00
54178;DHT22;40085;53.004;6.770;2022-11-20T18:24:16;1.70;1.00
54178;DHT22;40085;53.004;6.770;2022-11-20T18:26:42;4.40;1.00
54178;DHT22;40085;53.004;6.770;2022-11-20T18:29:08;1.70;1.00
54178;DHT22;40085;53.004;6.770;2022-11-20T18:31:34;4.50;1.00
54178;DHT22;40085;53.004;6.770;2022-11-20T18:34:00;2.00;1.00
54178;DHT22;40085;53.004;6.770;2022-11-20T18:36:28;1.80;1.00
54178;DHT22;40085;53.004;6.770;2022-11-20T18:38:56;1.70;1.00
54178;DHT22;40085;53.004;6.770;2022-11-20T18:41:25;1.60;1.00
54178;DHT22;40085;53.004;6.770;2022-11-20T18:44:18;1.90;1.00
54178;DHT22;40085;53.004;6.770;2022-11-20T18:47:04;2.00;1.00
54178;DHT22;40085;53.004;6.770;2022-11-20T18:49:30;2.10;1.00
54178;DHT22;40085;53.004;6.770;2022-11-20T18:51:55;1.80;4.80
54178;DHT22;40085;53.004;6.770;2022-11-20T18:54:22;2.70;3.00
54178;DHT22;40085;53.004;6.770;2022-11-20T18:56:47;1.80;8.40
54178;DHT22;40085;53.004;6.770;2022-11-20T18:59:14;3.70;6.40
54178;DHT22;40085;53.004;6.770;2022-11-20T19:01:40;0.80;3.70
54178;DHT22;40085;53.004;6.770;2022-11-20T19:04:11;1.90;9.20
54178;DHT22;40085;53.004;6.770;2022-11-20T19:06:38;2.00;9.80
54178;DHT22;40085;53.004;6.770;2022-11-20T19:09:05;1.90;11.20
54178;DHT22;40085;53.004;6.770;2022-11-20T19:11:34;4.50;18.40
54178;DHT22;40085;53.004;6.770;2022-11-20T19:13:59;2.10;20.90
54178;DHT22;40085;53.004;6.770;2022-11-20T19:16:26;2.70;25.70
54178;DHT22;40085;53.004;6.770;2022-11-20T19:18:52;1.90;23.30
54178;DHT22;40085;53.004;6.770;2022-11-20T19:21:20;3.60;28.30
54178;DHT22;40085;53.004;6.770;2022-11-20T19:23:51;2.00;22.20
54178;DHT22;40085;53.004;6.770;2022-11-20T19:26:18;2.00;19.40
54178;DHT22;40085;53.004;6.770;2022-11-20T19:28:44;2.90;27.70
54178;DHT22;40085;53.004;6.770;2022-11-20T19:31:16;4.60;31.90
54178;DHT22;40085;53.004;6.770;2022-11-20T19:33:43;2.40;27.60
54178;DHT22;40085;53.004;6.770;2022-11-20T19:36:17;3.90;28.70
54178;DHT22;40085;53.004;6.770;2022-11-20T19:38:44;1.80;28.20
54178;DHT22;40085;53.004;6.770;2022-11-20T19:41:12;2.90;27.40
54178;DHT22;40085;53.004;6.770;2022-11-20T19:43:39;1.90;25.60
54178;DHT22;40085;53.004;6.770;2022-11-20T19:46:05;3.00;27.30
54178;DHT22;40085;53.004;6.770;2022-11-20T19:48:36;1.90;26.30
54178;DHT22;40085;53.004;6.770;2022-11-20T19:51:29;2.20;23.90
54178;DHT22;40085;53.004;6.770;2022-11-20T19:53:56;3.30;24.20
54178;DHT22;40085;53.004;6.770;2022-11-20T19:56:24;3.60;26.20
54178;DHT22;40085;53.004;6.770;2022-11-20T19:58:52;2.00;24.00
54178;DHT22;40085;53.004;6.770;2022-11-20T20:01:20;2.30;23.20
54178;DHT22;40085;53.004;6.770;2022-11-20T20:03:47;1.90;20.20
54178;DHT22;40085;53.004;6.770;2022-11-20T20:06:18;1.90;21.10
54178;DHT22;40085;53.004;6.770;2022-11-20T20:08:45;1.90;21.80
54178;DHT22;40085;53.004;6.770;2022-11-20T20:11:14;2.20;22.60
54178;DHT22;40085;53.004;6.770;2022-11-20T20:13:41;2.10;27.60
54178;DHT22;40085;53.004;6.770;2022-11-20T20:16:12;2.10;29.60
54178;DHT22;40085;53.004;6.770;2022-11-20T20:18:38;1.90;30.00
54178;DHT22;40085;53.004;6.770;2022-11-20T20:21:06;1.90;33.40
54178;DHT22;40085;53.004;6.770;2022-11-20T20:23:33;1.90;25.50
54178;DHT22;40085;53.004;6.770;2022-11-20T20:26:00;1.90;27.00
54178;DHT22;40085;53.004;6.770;2022-11-20T20:28:26;4.20;30.50
54178;DHT22;40085;53.004;6.770;2022-11-20T20:30:53;1.90;22.10
54178;DHT22;40085;53.004;6.770;2022-11-20T20:33:19;2.80;22.60
54178;DHT22;40085;53.004;6.770;2022-11-20T20:35:45;1.80;23.90
54178;DHT22;40085;53.004;6.770;2022-11-20T20:38:11;1.80;25.40
54178;DHT22;40085;53.004;6.770;2022-11-20T20:40:37;3.90;23.20
54178;DHT22;40085;53.004;6.770;2022-11-20T20:43:03;1.50;24.50
54178;DHT22;40085;53.004;6.770;2022-11-20T20:45:29;2.80;24.60
54178;DHT22;40085;53.004;6.770;2022-11-20T20:47:55;3.30;26.00
54178;DHT22;40085;53.004;6.770;2022-11-20T20:50:21;4.00;26.10
54178;DHT22;40085;53.004;6.770;2022-11-20T20:52:47;3.60;26.00
54178;DHT22;40085;53.004;6.770;2022-11-20T20:55:16;3.80;26.90
54178;DHT22;40085;53.004;6.770;2022-11-20T20:57:42;2.90;23.00
54178;DHT22;40085;53.004;6.770;2022-11-20T21:00:08;3.60;24.60
54178;DHT22;40085;53.004;6.770;2022-11-20T21:02:35;1.80;23.70
54178;DHT22;40085;53.004;6.770;2022-11-20T21:05:01;1.80;25.90
54178;DHT22;40085;53.004;6.770;2022-11-20T21:07:26;1.90;28.20
54178;DHT22;40085;53.004;6.770;2022-11-20T21:09:52;4.10;26.90
54178;DHT22;40085;53.004;6.770;2022-11-20T21:12:18;4.00;29.80